Time;durP1;ratioP1;P1;durP2;ratioP2;P2;SDS_P1;SDS_P2;PMS_P1;PMS_P2;Temp;Humidity;BMP_temperature;BMP_pressure;BME280_temperature;BME280_humidity;BME280_pressure;Samples;Min_cycle;Max_cycle;Signal;HPM_P1;HPM_P2
2022/09/20 00:01:27;;;;;;;2.03;0.98;;;19.90;54.00;;;;;;5031956;28;20056;-66
2022/09/20 00:03:57;;;;;;;3.20;0.82;;;20.00;53.70;;;;;;5030343;28;20025;-67
2022/09/20 00:06:27;;;;;;;2.47;0.65;;;20.20;54.80;;;;;;5031904;28;20478;-66
2022/09/20 00:08:55;;;;;;;1.55;0.85;;;20.40;50.70;;;;;;5029344;28;20021;-67
2022/09/20 00:11:28;;;;;;;4.53;0.68;;;20.50;53.30;;;;;;5031241;28;20042;-67
2022/09/20 00:13:57;;;;;;;4.05;0.90;;;20.50;54.10;;;;;;5032921;28;20087;-63
2022/09/20 00:16:27;;;;;;;2.45;0.68;;;20.60;55.20;;;;;;5028618;28;20029;-64
2022/09/20 00:18:57;;;;;;;2.20;0.70;;;20.60;54.80;;;;;;5027653;28;20108;-65
2022/09/20 00:21:27;;;;;;;5.90;0.70;;;20.80;54.20;;;;;;5024172;28;20029;-64
2022/09/20 00:23:56;;;;;;;5.15;0.90;;;21.00;55.20;;;;;;5021811;28;20021;-65
2022/09/20 00:26:24;;;;;;;3.78;0.88;;;21.00;51.30;;;;;;5023952;28;20053;-62
2022/09/20 00:28:51;;;;;;;2.33;0.82;;;21.20;55.20;;;;;;5029132;28;20101;-63
2022/09/20 00:31:19;;;;;;;4.00;1.13;;;21.20;52.40;;;;;;5029659;28;20398;-65
2022/09/20 00:36:32;;;;;;;4.00;0.80;;;20.90;50.00;;;;;;5031732;28;20084;-66
2022/09/20 00:39:01;;;;;;;2.72;0.90;;;20.90;54.30;;;;;;5028821;28;20021;-65
2022/09/20 00:41:30;;;;;;;4.43;0.82;;;21.20;55.00;;;;;;5031984;28;20482;-68
2022/09/20 00:44:00;;;;;;;6.65;0.77;;;21.30;54.20;;;;;;5026407;28;20017;-67
2022/09/20 00:46:33;;;;;;;1.92;0.50;;;21.60;55.60;;;;;;5027673;28;20033;-68
2022/09/20 00:49:06;;;;;;;1.80;0.77;;;21.70;53.80;;;;;;5028896;28;20617;-67
2022/09/20 00:51:36;;;;;;;3.90;0.85;;;21.70;54.10;;;;;;5025481;28;20025;-67
2022/09/20 00:54:07;;;;;;;1.58;0.70;;;22.00;57.20;;;;;;5024978;28;20083;-67
2022/09/20 00:56:40;;;;;;;6.82;0.90;;;22.30;54.80;;;;;;5023949;28;20436;-67
2022/09/20 00:59:17;;;;;;;4.30;1.00;;;22.20;54.00;;;;;;5023376;28;20115;-67
2022/09/20 01:01:48;;;;;;;2.13;0.60;;;22.40;53.50;;;;;;5029368;28;20124;-67
2022/09/20 01:04:20;;;;;;;5.38;1.38;;;22.60;55.80;;;;;;5043228;28;20018;-66
2022/09/20 01:06:51;;;;;;;3.72;0.90;;;22.80;54.20;;;;;;5036975;28;20499;-66
2022/09/20 01:09:18;;;;;;;2.28;0.75;;;23.00;53.60;;;;;;5028944;28;20026;-66
2022/09/20 01:11:47;;;;;;;3.95;0.90;;;23.00;52.10;;;;;;5030973;28;20025;-66
2022/09/20 01:14:17;;;;;;;1.60;0.70;;;23.00;54.30;;;;;;5032200;28;20028;-66
2022/09/20 01:16:45;;;;;;;5.10;0.90;;;23.10;54.80;;;;;;5031093;28;20041;-66
2022/09/20 01:19:30;;;;;;;3.90;0.90;;;23.20;53.80;;;;;;5037304;28;20079;-66
2022/09/20 01:21:59;;;;;;;2.50;0.60;;;23.20;55.10;;;;;;5030211;28;20045;-66
2022/09/20 01:24:39;;;;;;;4.88;1.30;;;23.40;54.20;;;;;;5041769;28;20389;-65
2022/09/20 01:27:18;;;;;;;3.25;0.90;;;23.10;52.50;;;;;;5017340;28;20025;-66
2022/09/20 01:29:57;;;;;;;4.88;0.95;;;23.00;51.80;;;;;;5031414;28;20044;-67
2022/09/20 01:32:35;;;;;;;4.28;0.70;;;22.90;51.60;;;;;;5025179;28;20116;-67
2022/09/20 01:35:03;;;;;;;3.03;0.85;;;22.50;52.80;;;;;;5029300;28;20033;-67
2022/09/20 01:37:42;;;;;;;5.05;0.82;;;22.50;56.30;;;;;;5029530;28;20112;-65
2022/09/20 01:40:32;;;;;;;2.53;1.30;;;22.70;55.80;;;;;;5024414;28;20048;-66
2022/09/20 01:43:27;;;;;;;4.57;0.68;;;23.10;53.30;;;;;;5022186;28;20041;-66
2022/09/20 01:45:55;;;;;;;2.33;0.88;;;23.40;52.30;;;;;;5040767;28;20024;-65
2022/09/20 01:48:36;;;;;;;3.05;0.85;;;23.30;52.30;;;;;;5042861;28;20033;-66
2022/09/20 01:51:22;;;;;;;4.38;1.17;;;23.40;55.30;;;;;;5027472;28;20029;-66
2022/09/20 01:53:58;;;;;;;3.00;0.88;;;23.50;53.70;;;;;;5038111;28;20033;-67
2022/09/20 01:56:56;;;;;;;5.53;1.30;;;23.50;53.90;;;;;;5025804;28;20029;-67
2022/09/20 01:59:47;;;;;;;9.90;2.55;;;23.50;54.60;;;;;;5039555;28;20030;-65
2022/09/20 02:02:51;;;;;;;4.18;0.95;;;23.60;53.60;;;;;;5028656;28;20034;-66
2022/09/20 02:05:40;;;;;;;4.40;1.00;;;23.80;52.00;;;;;;5049975;28;20057;-67
2022/09/20 02:08:31;;;;;;;5.57;1.10;;;23.90;52.20;;;;;;5035101;28;20037;-66
2022/09/20 02:11:13;;;;;;;4.05;1.00;;;24.00;52.00;;;;;;5037270;28;20056;-65
2022/09/20 02:13:50;;;;;;;6.82;2.05;;;24.10;48.90;;;;;;5026936;28;20063;-66
2022/09/20 02:16:51;;;;;;;3.88;0.80;;;23.80;50.90;;;;;;5030414;28;20021;-66
2022/09/20 02:19:27;;;;;;;3.55;0.80;;;23.80;52.10;;;;;;4985748;28;20083;-68
2022/09/20 02:22:19;;;;;;;4.55;0.80;;;23.90;54.40;;;;;;5025769;28;20045;-67
2022/09/20 02:24:55;;;;;;;2.80;0.82;;;24.20;54.00;;;;;;5029910;28;20032;-68
2022/09/20 02:28:10;;;;;;;4.35;1.13;;;24.50;51.30;;;;;;5030153;28;20025;-68
2022/09/20 02:30:40;;;;;;;3.22;0.93;;;24.60;48.90;;;;;;5028330;28;20628;-66
2022/09/20 02:33:45;;;;;;;4.55;0.90;;;24.60;51.90;;;;;;5027799;28;20572;-65
2022/09/20 02:36:35;;;;;;;6.38;0.95;;;24.70;49.10;;;;;;5021035;28;20126;-66
2022/09/20 02:39:16;;;;;;;4.53;0.73;;;24.60;51.20;;;;;;5028892;28;20112;-67
2022/09/20 02:42:03;;;;;;;5.13;0.90;;;24.60;51.00;;;;;;5033719;28;20087;-67
2022/09/20 02:44:45;;;;;;;3.17;0.90;;;24.70;49.60;;;;;;5029896;28;20057;-66
2022/09/20 02:47:35;;;;;;;3.95;0.80;;;24.80;48.80;;;;;;5034001;28;20033;-67
2022/09/20 02:50:20;;;;;;;3.17;0.80;;;24.60;47.50;;;;;;5029117;28;20025;-67
2022/09/20 02:53:20;;;;;;;9.13;1.48;;;24.30;49.50;;;;;;5032057;28;20499;-67
2022/09/20 02:56:03;;;;;;;5.22;0.90;;;24.40;52.20;;;;;;5029527;28;20032;-68
2022/09/20 02:59:02;;;;;;;2.78;1.05;;;24.50;51.10;;;;;;5041047;28;20052;-67
2022/09/20 03:01:58;;;;;;;2.65;1.27;;;24.80;51.90;;;;;;5010730;28;20049;-68
2022/09/20 03:05:10;;;;;;;3.33;0.77;;;25.00;50.00;;;;;;5031236;28;20033;-66
2022/09/20 03:08:15;;;;;;;3.85;0.82;;;25.00;49.70;;;;;;5003803;28;20067;-66
2022/09/20 03:10:49;;;;;;;1.80;0.52;;;25.30;51.50;;;;;;5005686;28;20457;-64
2022/09/20 03:13:39;;;;;;;3.13;0.68;;;25.30;49.20;;;;;;5022498;28;20530;-65
2022/09/20 03:16:18;;;;;;;3.80;0.75;;;25.20;48.70;;;;;;5026265;28;20112;-64
2022/09/20 03:19:16;;;;;;;2.10;0.70;;;25.20;49.50;;;;;;5042012;28;20021;-64
2022/09/20 03:22:13;;;;;;;3.63;0.77;;;25.10;49.50;;;;;;5022102;28;20033;-63
2022/09/20 03:24:58;;;;;;;2.45;0.70;;;24.80;44.90;;;;;;5026244;28;20017;-63
2022/09/20 03:27:44;;;;;;;4.03;0.68;;;24.60;49.50;;;;;;5024269;28;20148;-63
2022/09/20 03:30:23;;;;;;;4.75;0.60;;;24.50;47.50;;;;;;5028196;28;20025;-63
2022/09/20 03:33:24;;;;;;;2.83;0.73;;;24.50;49.90;;;;;;5027770;28;20029;-63
2022/09/20 03:36:10;;;;;;;2.33;0.50;;;24.70;48.40;;;;;;5020025;28;20041;-64
2022/09/20 03:38:58;;;;;;;2.20;0.75;;;24.80;48.80;;;;;;5030882;28;20471;-63
2022/09/20 03:41:56;;;;;;;9.55;0.70;;;24.90;48.20;;;;;;5022426;28;20124;-64
2022/09/20 03:44:46;;;;;;;1.52;0.50;;;25.00;49.00;;;;;;5029126;28;20382;-64
2022/09/20 03:47:53;;;;;;;3.25;0.65;;;25.00;49.50;;;;;;5015304;28;20605;-63
2022/09/20 03:50:41;;;;;;;3.75;0.73;;;25.10;46.40;;;;;;5029086;28;20030;-63
2022/09/20 03:53:21;;;;;;;1.90;0.70;;;25.00;47.20;;;;;;5030062;28;20026;-63
2022/09/20 03:56:07;;;;;;;1.23;0.95;;;25.40;47.40;;;;;;5019194;28;20021;-63
2022/09/20 03:58:44;;;;;;;4.50;0.82;;;25.20;46.40;;;;;;5027528;28;20036;-63
2022/09/20 04:01:29;;;;;;;2.72;0.70;;;25.10;48.80;;;;;;5028986;28;20155;-64
2022/09/20 04:04:05;;;;;;;1.45;0.60;;;25.30;48.90;;;;;;5028689;28;20109;-63
2022/09/20 04:06:38;;;;;;;1.73;0.50;;;25.40;46.80;;;;;;5033003;28;20021;-63
2022/09/20 04:09:39;;;;;;;4.32;1.10;;;25.40;46.90;;;;;;5032743;28;20121;-63
2022/09/20 04:12:48;;;;;;;3.70;0.88;;;25.10;46.70;;;;;;5035890;28;20108;-63
2022/09/20 04:15:37;;;;;;;3.80;0.85;;;24.90;46.90;;;;;;5028149;28;20478;-63
2022/09/20 04:18:10;;;;;;;1.60;0.55;;;24.70;47.50;;;;;;5037391;28;20378;-64
2022/09/20 04:20:47;;;;;;;1.83;0.60;;;24.70;47.60;;;;;;5038101;28;20048;-63
2022/09/20 04:23:41;;;;;;;5.97;0.80;;;24.00;47.60;;;;;;5030095;28;20037;-62
2022/09/20 04:26:09;;;;;;;4.28;0.77;;;23.40;47.50;;;;;;5028377;28;20112;-63
2022/09/20 04:28:46;;;;;;;3.20;0.70;;;23.20;49.30;;;;;;5023301;28;20041;-65
2022/09/20 04:31:34;;;;;;;4.72;1.38;;;23.40;50.20;;;;;;5026471;28;20490;-64
2022/09/20 04:34:08;;;;;;;2.15;1.00;;;23.70;49.80;;;;;;5029310;28;20064;-63
2022/09/20 04:37:01;;;;;;;1.95;0.80;;;23.60;48.90;;;;;;5032693;28;20128;-62
2022/09/20 04:40:02;;;;;;;1.35;0.60;;;23.60;49.40;;;;;;5028416;28;20060;-62
2022/09/20 04:43:17;;;;;;;1.88;0.65;;;23.50;49.60;;;;;;5036495;28;20034;-62
2022/09/20 04:45:44;;;;;;;1.58;0.70;;;23.30;49.00;;;;;;4989721;28;20037;-63
2022/09/20 04:48:20;;;;;;;3.25;0.85;;;22.90;50.30;;;;;;5023610;28;20041;-62
2022/09/20 04:51:21;;;;;;;6.00;1.55;;;22.90;50.50;;;;;;5028620;28;20057;-63
2022/09/20 04:54:23;;;;;;;3.17;0.68;;;22.70;50.40;;;;;;5038170;28;20145;-62
2022/09/20 04:57:05;;;;;;;5.10;0.90;;;22.50;51.00;;;;;;4965391;28;20035;-66
2022/09/20 05:00:11;;;;;;;5.93;0.77;;;22.60;51.70;;;;;;5027918;28;20416;-66
2022/09/20 05:02:53;;;;;;;5.50;0.90;;;22.70;51.60;;;;;;5035817;28;20093;-66
2022/09/20 05:05:42;;;;;;;1.75;1.05;;;22.80;50.90;;;;;;5039096;28;20508;-66
2022/09/20 05:08:15;;;;;;;2.83;0.93;;;22.80;50.30;;;;;;5026217;28;20021;-67
2022/09/20 05:10:45;;;;;;;2.53;0.75;;;22.60;49.70;;;;;;5032477;28;20116;-66
2022/09/20 05:13:45;;;;;;;3.08;0.68;;;22.50;51.40;;;;;;5034427;28;20033;-67
2022/09/20 05:16:45;;;;;;;7.82;0.73;;;22.50;50.90;;;;;;5032523;28;20570;-67
2022/09/20 05:19:32;;;;;;;1.55;0.98;;;22.40;52.00;;;;;;5021603;28;20036;-67
2022/09/20 05:22:17;;;;;;;3.05;0.95;;;22.50;52.40;;;;;;5036891;28;20037;-67
2022/09/20 05:25:01;;;;;;;3.95;0.80;;;22.50;50.80;;;;;;5040939;28;20056;-66
2022/09/20 05:27:46;;;;;;;2.35;0.77;;;22.30;51.20;;;;;;5022773;28;20076;-66
2022/09/20 05:30:41;;;;;;;5.57;1.05;;;22.10;51.10;;;;;;5034911;28;20551;-66
2022/09/20 05:33:20;;;;;;;;;;;21.90;51.30;;;;;;5031321;28;20441;-66
2022/09/20 05:35:59;;;;;;;2.58;0.80;;;21.80;52.80;;;;;;5021039;28;20109;-67
2022/09/20 05:39:10;;;;;;;6.15;0.80;;;21.80;53.50;;;;;;5039007;28;20021;-66
2022/09/20 05:42:01;;;;;;;2.95;1.00;;;21.70;53.50;;;;;;4975889;28;20121;-65
2022/09/20 05:44:51;;;;;;;1.20;0.57;;;21.50;51.50;;;;;;5039100;28;20049;-67
2022/09/20 05:47:18;;;;;;;2.20;0.68;;;21.40;51.90;;;;;;5016263;28;20041;-66
2022/09/20 05:50:15;;;;;;;3.90;0.68;;;21.40;54.00;;;;;;5029974;28;20092;-67
2022/09/20 05:53:16;;;;;;;5.22;1.15;;;21.30;54.20;;;;;;5001815;28;20041;-67
2022/09/20 05:55:57;;;;;;;5.78;0.93;;;21.40;54.70;;;;;;5028702;28;20033;-67
2022/09/20 05:59:00;;;;;;;2.00;0.65;;;21.50;57.40;;;;;;5029763;28;20036;-67
2022/09/20 06:02:08;;;;;;;2.75;0.85;;;21.50;59.20;;;;;;5027049;28;20033;-65
2022/09/20 06:04:49;;;;;;;2.30;0.95;;;21.60;59.50;;;;;;5032243;28;20141;-66
2022/09/20 06:07:54;;;;;;;5.53;1.27;;;21.60;60.40;;;;;;5030528;28;20112;-67
2022/09/20 06:10:51;;;;;;;5.50;0.80;;;21.40;60.60;;;;;;4995965;28;20557;-66
2022/09/20 06:13:48;;;;;;;3.85;0.77;;;21.30;61.50;;;;;;5021270;28;20033;-67
2022/09/20 06:16:45;;;;;;;2.58;0.70;;;21.20;62.60;;;;;;5020139;28;20029;-66
2022/09/20 06:19:44;;;;;;;4.82;0.90;;;21.00;63.30;;;;;;5037942;28;20037;-67
2022/09/20 06:22:48;;;;;;;5.35;1.73;;;20.90;64.00;;;;;;5025071;28;20030;-67
2022/09/20 06:25:18;;;;;;;6.85;1.45;;;20.90;64.40;;;;;;5028914;28;20075;-67
2022/09/20 06:28:15;;;;;;;7.00;1.10;;;20.80;64.70;;;;;;5027873;28;20035;-68
2022/09/20 06:30:51;;;;;;;4.50;0.93;;;20.80;65.30;;;;;;5016198;28;20494;-67
2022/09/20 06:33:24;;;;;;;6.30;1.08;;;20.70;66.20;;;;;;5043550;28;20024;-67
2022/09/20 06:35:58;;;;;;;6.85;0.80;;;20.60;67.00;;;;;;5045385;28;20052;-67
2022/09/20 06:41:41;;;;;;;6.03;1.00;;;20.40;68.80;;;;;;5022955;28;20052;-67
2022/09/20 06:44:08;;;;;;;2.72;0.98;;;20.20;69.30;;;;;;5036842;28;20466;-67
2022/09/20 06:46:37;;;;;;;7.10;1.10;;;20.10;70.10;;;;;;5033420;28;20029;-68
2022/09/20 06:49:08;;;;;;;1.77;0.73;;;20.10;71.50;;;;;;5031683;28;20017;-68
2022/09/20 06:51:38;;;;;;;2.83;0.90;;;19.90;72.50;;;;;;5036532;28;20044;-68
2022/09/20 06:54:10;;;;;;;5.25;1.00;;;19.80;73.30;;;;;;5032662;28;20485;-68
2022/09/20 06:56:37;;;;;;;4.70;0.80;;;19.70;74.20;;;;;;5033783;28;20582;-68
2022/09/20 06:59:10;;;;;;;4.60;0.93;;;19.50;75.80;;;;;;5028416;28;20070;-68
2022/09/20 07:01:38;;;;;;;4.00;0.85;;;19.40;76.70;;;;;;5021795;28;20848;-66
2022/09/20 07:04:05;;;;;;;7.13;1.85;;;19.20;77.60;;;;;;5021456;28;20032;-68
2022/09/20 07:06:36;;;;;;;3.80;1.35;;;19.10;78.60;;;;;;5028178;28;20063;-68
2022/09/20 07:09:04;;;;;;;7.13;1.08;;;19.00;79.90;;;;;;5034009;28;20026;-68
2022/09/20 07:11:33;;;;;;;7.65;1.13;;;18.90;80.10;;;;;;5033876;28;20124;-69
2022/09/20 07:14:00;;;;;;;6.10;1.10;;;18.80;80.70;;;;;;5026539;28;20042;-67
2022/09/20 07:16:28;;;;;;;6.80;1.30;;;18.60;81.40;;;;;;5031518;28;20052;-69
2022/09/20 07:18:55;;;;;;;5.30;0.90;;;18.50;81.40;;;;;;5028180;28;20553;-69
2022/09/20 07:21:23;;;;;;;12.30;2.30;;;18.40;82.30;;;;;;5014765;28;20091;-66
2022/09/20 07:23:52;;;;;;;6.93;1.77;;;18.30;82.40;;;;;;5021679;28;20128;-66
2022/09/20 07:26:27;;;;;;;6.05;1.40;;;18.10;82.70;;;;;;5029612;28;20103;-69
2022/09/20 07:28:56;;;;;;;10.55;2.10;;;18.00;83.20;;;;;;5036976;28;20097;-66
2022/09/20 07:31:25;;;;;;;10.75;2.15;;;17.90;83.90;;;;;;5036749;28;20112;-66
2022/09/20 07:33:53;;;;;;;4.47;1.50;;;17.80;84.50;;;;;;5035980;28;20572;-66
2022/09/20 07:36:20;;;;;;;5.80;0.90;;;17.70;84.90;;;;;;5034216;28;20045;-65
2022/09/20 07:38:52;;;;;;;7.80;1.30;;;17.60;85.10;;;;;;5029748;28;20406;-68
2022/09/20 07:41:21;;;;;;;6.88;1.00;;;17.50;85.70;;;;;;5032244;28;20044;-68
2022/09/20 07:43:49;;;;;;;5.95;1.25;;;17.40;85.80;;;;;;5035034;28;20028;-65
2022/09/20 07:46:19;;;;;;;8.30;1.42;;;17.30;86.40;;;;;;5034804;28;20025;-66
2022/09/20 07:48:46;;;;;;;9.48;2.08;;;17.20;86.70;;;;;;5033167;28;20025;-65
2022/09/20 07:51:14;;;;;;;11.00;1.58;;;17.10;87.10;;;;;;5027885;28;20040;-65
2022/09/20 07:53:41;;;;;;;4.55;1.42;;;17.10;88.00;;;;;;5034318;28;20167;-65
2022/09/20 07:56:15;;;;;;;7.93;1.45;;;16.90;88.20;;;;;;5029396;28;20018;-68
2022/09/20 07:58:44;;;;;;;5.28;1.30;;;16.80;89.10;;;;;;5027397;28;20025;-69
2022/09/20 08:01:13;;;;;;;7.53;1.10;;;16.70;89.50;;;;;;5020164;28;20867;-68
2022/09/20 08:03:41;;;;;;;5.72;1.23;;;16.70;89.80;;;;;;5027797;28;20041;-64
2022/09/20 08:06:13;;;;;;;9.32;1.33;;;16.60;90.00;;;;;;5027693;28;21377;-72
2022/09/20 08:08:41;;;;;;;6.07;1.00;;;16.50;90.20;;;;;;5029551;28;20029;-69
2022/09/20 08:11:11;;;;;;;9.60;2.05;;;16.40;90.50;;;;;;5026517;28;20029;-69
2022/09/20 08:13:58;;;;;;;9.85;2.95;;;16.30;90.60;;;;;;5030983;28;20033;-69
2022/09/20 08:16:27;;;;;;;4.40;1.33;;;16.20;90.70;;;;;;5028298;28;20036;-70
2022/09/20 08:19:01;;;;;;;5.97;1.35;;;16.20;90.90;;;;;;5031036;28;20021;-69
2022/09/20 08:21:32;;;;;;;8.30;1.20;;;16.10;90.90;;;;;;5032088;28;20073;-68
2022/09/20 08:24:00;;;;;;;6.65;1.35;;;16.10;91.10;;;;;;5031509;28;20022;-67
2022/09/20 08:26:30;;;;;;;4.95;1.30;;;16.10;91.10;;;;;;5031173;28;20029;-71
2022/09/20 08:29:00;;;;;;;7.03;1.23;;;16.10;91.00;;;;;;5030878;28;20045;-70
2022/09/20 08:31:34;;;;;;;5.95;1.55;;;15.90;91.10;;;;;;5040087;28;20033;-71
2022/09/20 08:34:05;;;;;;;7.47;1.63;;;15.90;91.30;;;;;;5047819;28;20020;-67
2022/09/20 08:36:35;;;;;;;7.60;1.13;;;15.80;91.40;;;;;;5029461;28;20123;-65
2022/09/20 08:39:02;;;;;;;6.55;1.15;;;15.80;91.40;;;;;;5020593;28;20516;-71
2022/09/20 08:41:38;;;;;;;4.95;1.20;;;15.80;91.50;;;;;;5031265;28;20037;-71
2022/09/20 08:44:14;;;;;;;7.32;1.08;;;15.70;91.30;;;;;;5022435;28;20083;-68
2022/09/20 08:46:49;;;;;;;10.90;1.50;;;15.70;91.60;;;;;;5031357;28;20063;-73
2022/09/20 08:49:26;;;;;;;8.30;1.65;;;15.60;91.50;;;;;;5029423;28;20033;-69
2022/09/20 08:51:56;;;;;;;9.57;1.50;;;15.50;91.70;;;;;;5039271;28;20025;-69
2022/09/20 08:54:25;;;;;;;7.00;1.92;;;15.50;92.00;;;;;;5041023;28;20034;-64
2022/09/20 08:56:54;;;;;;;5.70;1.05;;;15.40;92.10;;;;;;5032297;28;20109;-65
2022/09/20 08:59:24;;;;;;;4.97;1.08;;;15.40;92.20;;;;;;5028283;28;20036;-62
2022/09/20 09:01:53;;;;;;;6.05;1.00;;;15.40;92.50;;;;;;5034622;28;20041;-68
2022/09/20 09:04:23;;;;;;;3.85;0.95;;;15.30;92.40;;;;;;5028495;28;20018;-69
2022/09/20 09:06:51;;;;;;;6.35;1.58;;;15.30;92.40;;;;;;5040729;28;20025;-64
2022/09/20 09:09:23;;;;;;;8.32;1.65;;;15.30;92.60;;;;;;5024128;28;20037;-69
2022/09/20 09:11:52;;;;;;;10.10;2.20;;;15.30;92.50;;;;;;5034893;28;20060;-68
2022/09/20 09:17:15;;;;;;;5.13;1.38;;;15.20;92.70;;;;;;5031970;28;20060;-67
2022/09/20 09:19:55;;;;;;;6.30;1.65;;;15.20;92.70;;;;;;5020862;28;20029;-65
2022/09/20 09:22:39;;;;;;;8.90;1.48;;;15.10;92.90;;;;;;5038049;28;20071;-61
2022/09/20 09:25:31;;;;;;;5.65;1.23;;;15.10;92.80;;;;;;5040629;28;20521;-65
2022/09/20 09:28:00;;;;;;;10.68;1.08;;;15.00;92.90;;;;;;5035148;28;20090;-64
2022/09/20 09:30:42;;;;;;;7.90;1.38;;;15.00;93.10;;;;;;5016680;28;20025;-67
2022/09/20 09:33:30;;;;;;;5.00;1.20;;;14.90;93.20;;;;;;5039855;28;20490;-66
2022/09/20 09:36:16;;;;;;;5.80;1.50;;;14.90;93.30;;;;;;5038689;28;20060;-68
2022/09/20 09:38:45;;;;;;;4.05;0.90;;;14.80;93.50;;;;;;5041467;28;20024;-65
2022/09/20 09:41:24;;;;;;;4.07;1.90;;;14.80;93.70;;;;;;5034571;28;20497;-67
2022/09/20 09:44:05;;;;;;;5.85;1.25;;;14.80;93.70;;;;;;5025865;28;21516;-66
2022/09/20 09:46:34;;;;;;;13.98;2.92;;;14.70;93.60;;;;;;5029454;28;20428;-67
2022/09/20 09:49:15;;;;;;;4.30;1.27;;;14.70;93.80;;;;;;5025781;28;20033;-69
2022/09/20 09:52:01;;;;;;;9.60;2.08;;;14.60;94.00;;;;;;5031327;28;20454;-67
2022/09/20 09:54:46;;;;;;;5.78;1.48;;;14.40;94.00;;;;;;5038937;28;20055;-68
2022/09/20 09:57:32;;;;;;;10.30;2.35;;;14.30;94.70;;;;;;5037519;28;20023;-71
2022/09/20 10:00:23;;;;;;;9.25;1.40;;;14.20;94.60;;;;;;5037940;28;20094;-73
2022/09/20 10:03:12;;;;;;;5.53;1.40;;;14.10;95.30;;;;;;5023826;28;20057;-68
2022/09/20 10:05:48;;;;;;;14.80;2.08;;;14.00;94.90;;;;;;5020221;28;20021;-68
2022/09/20 10:08:18;;;;;;;4.07;1.60;;;13.90;95.80;;;;;;5026215;28;20026;-68
2022/09/20 10:11:03;;;;;;;9.65;1.35;;;13.80;96.00;;;;;;5030858;28;20033;-67
2022/09/20 10:13:50;;;;;;;8.10;2.28;;;13.70;96.00;;;;;;5032788;28;20104;-68
2022/09/20 10:16:48;;;;;;;14.73;1.63;;;13.60;96.10;;;;;;5035913;28;20108;-74
2022/09/20 10:19:39;;;;;;;8.93;1.15;;;13.60;96.40;;;;;;5022945;28;20029;-68
2022/09/20 10:22:28;;;;;;;8.65;1.70;;;13.50;96.40;;;;;;5022264;28;20635;-68
2022/09/20 10:25:13;;;;;;;7.20;1.98;;;13.40;96.90;;;;;;5015040;28;20018;-67
2022/09/20 10:27:57;;;;;;;6.63;1.02;;;13.40;96.60;;;;;;5029822;28;20478;-69
2022/09/20 10:30:46;;;;;;;15.60;2.88;;;13.30;97.20;;;;;;5027497;28;20025;-67
2022/09/20 10:33:13;;;;;;;8.68;1.48;;;13.20;97.20;;;;;;5032556;28;20041;-67
2022/09/20 10:36:12;;;;;;;4.88;1.10;;;13.20;97.30;;;;;;5031864;28;20045;-68
2022/09/20 10:39:05;;;;;;;5.20;1.55;;;13.10;97.50;;;;;;5039176;28;20037;-68
2022/09/20 10:44:36;;;;;;;7.63;1.85;;;12.90;97.60;;;;;;5031123;28;20065;-69
2022/09/20 10:47:20;;;;;;;7.75;1.30;;;12.80;97.70;;;;;;5033658;28;20021;-69
2022/09/20 10:50:17;;;;;;;6.80;1.60;;;12.70;97.90;;;;;;5017981;28;20026;-67
2022/09/20 10:53:10;;;;;;;5.95;1.38;;;12.60;97.80;;;;;;5027132;28;20604;-66
2022/09/20 10:55:53;;;;;;;7.88;1.75;;;12.50;98.10;;;;;;5036414;28;20033;-66
2022/09/20 10:58:38;;;;;;;5.90;1.40;;;12.40;98.30;;;;;;5032829;28;20024;-66
2022/09/20 11:01:05;;;;;;;6.03;1.60;;;12.40;98.40;;;;;;5026770;28;20036;-68
2022/09/20 11:03:54;;;;;;;9.88;1.92;;;12.30;98.70;;;;;;5029980;28;20045;-67
2022/09/20 11:06:39;;;;;;;5.32;1.85;;;12.20;98.80;;;;;;5023787;28;20087;-68
2022/09/20 11:09:12;;;;;;;5.25;1.83;;;12.20;98.80;;;;;;5038154;28;20736;-62
2022/09/20 11:12:17;;;;;;;8.98;1.83;;;12.10;98.90;;;;;;5030342;28;20021;-68
2022/09/20 11:14:52;;;;;;;6.47;1.40;;;12.00;98.80;;;;;;5023874;28;20044;-66
2022/09/20 11:18:03;;;;;;;11.45;2.83;;;12.00;99.20;;;;;;5025085;28;20025;-69
2022/09/20 11:20:48;;;;;;;9.05;2.15;;;11.90;99.20;;;;;;4975869;28;20056;-68
2022/09/20 11:23:20;;;;;;;8.63;2.33;;;11.80;99.60;;;;;;5027239;28;20025;-70
2022/09/20 11:26:08;;;;;;;6.10;1.42;;;11.80;99.60;;;;;;5025820;28;20018;-68
2022/09/20 11:28:47;;;;;;;10.63;3.38;;;11.70;99.80;;;;;;5027546;28;20498;-68
2022/09/20 11:31:23;;;;;;;5.15;1.40;;;11.70;99.60;;;;;;5027695;28;20542;-68
2022/09/20 11:34:00;;;;;;;7.07;1.70;;;11.60;99.70;;;;;;5019936;28;20058;-66
2022/09/20 11:36:51;;;;;;;6.53;1.42;;;11.60;99.70;;;;;;5026926;28;20051;-70
2022/09/20 11:39:25;;;;;;;6.10;1.90;;;11.50;99.80;;;;;;5029582;28;20032;-69
2022/09/20 11:41:55;;;;;;;6.07;1.55;;;11.50;99.80;;;;;;5026184;28;20032;-68
2022/09/20 11:44:22;;;;;;;9.10;1.67;;;11.40;99.80;;;;;;5036755;28;20029;-70
2022/09/20 11:46:52;;;;;;;8.93;2.55;;;11.40;99.90;;;;;;5022604;28;20029;-69
2022/09/20 11:49:52;;;;;;;5.47;1.90;;;11.30;99.90;;;;;;5032713;28;20028;-71
2022/09/20 11:52:54;;;;;;;13.45;3.15;;;11.40;99.90;;;;;;5022742;28;20046;-70
2022/09/20 11:55:47;;;;;;;5.75;1.30;;;11.30;99.90;;;;;;4989473;28;20111;-71
2022/09/20 11:58:17;;;;;;;11.07;2.47;;;11.20;99.90;;;;;;5026807;28;20025;-70
2022/09/20 12:00:47;;;;;;;5.57;1.70;;;11.10;99.90;;;;;;5026802;28;20026;-71
2022/09/20 12:03:41;;;;;;;7.90;1.35;;;11.10;99.90;;;;;;5028968;28;20037;-70
2022/09/20 12:06:27;;;;;;;13.80;1.67;;;11.00;99.90;;;;;;5030657;28;20439;-71
2022/09/20 12:08:56;;;;;;;8.60;1.88;;;11.00;99.90;;;;;;5038558;28;20022;-70
2022/09/20 12:11:42;;;;;;;8.00;2.00;;;10.90;99.90;;;;;;5035324;28;20021;-71
2022/09/20 12:14:23;;;;;;;7.93;1.90;;;10.90;99.90;;;;;;5034393;28;20032;-71
2022/09/20 12:16:51;;;;;;;4.30;1.42;;;10.90;99.90;;;;;;5023405;28;20029;-67
2022/09/20 12:19:21;;;;;;;6.68;3.80;;;10.90;99.90;;;;;;5028840;28;20654;-74
2022/09/20 12:22:04;;;;;;;6.20;1.55;;;10.80;99.90;;;;;;5028986;28;20445;-74
2022/09/20 12:24:39;;;;;;;8.95;1.85;;;10.80;99.90;;;;;;5038990;28;20095;-74
2022/09/20 12:27:28;;;;;;;9.20;2.15;;;10.80;99.90;;;;;;5020589;28;20033;-75
2022/09/20 12:30:18;;;;;;;6.57;2.15;;;10.70;99.90;;;;;;5028520;28;20055;-73
2022/09/20 12:32:55;;;;;;;4.60;1.80;;;10.70;99.90;;;;;;5028029;28;20102;-73
2022/09/20 12:35:43;;;;;;;14.40;2.10;;;10.70;99.90;;;;;;5026223;28;20044;-72
2022/09/20 12:38:36;;;;;;;5.05;1.88;;;10.60;99.90;;;;;;5044923;28;20037;-73
2022/09/20 12:41:08;;;;;;;7.43;2.30;;;10.60;99.90;;;;;;5022620;28;20045;-73
2022/09/20 12:43:46;;;;;;;8.27;2.50;;;10.60;99.90;;;;;;5035627;28;20087;-73
2022/09/20 12:46:28;;;;;;;9.95;2.17;;;10.60;99.90;;;;;;5026125;28;20481;-73
2022/09/20 12:52:49;;;;;;;8.75;2.10;;;10.60;99.90;;;;;;5033291;28;20030;-72
2022/09/20 12:54:54;;;;;;;10.90;2.75;;;10.60;99.90;;;;;;5021041;28;20031;-73
2022/09/20 12:57:34;;;;;;;8.80;2.20;;;10.70;99.90;;;;;;5033614;28;20030;-74
2022/09/20 13:00:06;;;;;;;12.57;2.10;;;10.60;99.90;;;;;;5030288;28;20041;-73
2022/09/20 13:03:03;;;;;;;14.90;2.40;;;10.60;99.90;;;;;;5025113;28;20048;-74
2022/09/20 13:05:33;;;;;;;6.93;1.92;;;10.70;99.90;;;;;;4987831;28;20040;-73
2022/09/20 13:08:09;;;;;;;7.10;2.13;;;10.70;99.90;;;;;;5038352;28;20175;-73
2022/09/20 13:10:54;;;;;;;8.20;1.60;;;10.60;99.90;;;;;;5035023;28;20061;-73
2022/09/20 13:13:52;;;;;;;9.73;2.13;;;10.60;99.90;;;;;;5032105;28;20033;-74
2022/09/20 13:16:28;;;;;;;10.18;2.05;;;10.60;99.90;;;;;;5035608;28;20371;-69
2022/09/20 13:19:04;;;;;;;7.32;2.08;;;10.60;99.90;;;;;;5038079;28;20768;-72
2022/09/20 13:21:38;;;;;;;5.43;1.60;;;10.50;99.90;;;;;;5031486;28;20115;-73
2022/09/20 13:24:07;;;;;;;10.50;3.07;;;10.60;99.90;;;;;;5027792;28;20045;-73
2022/09/20 13:26:39;;;;;;;24.00;2.85;;;10.50;99.90;;;;;;5029029;28;20104;-72
2022/09/20 13:29:26;;;;;;;7.22;2.35;;;10.70;99.90;;;;;;5031662;28;20363;-73
2022/09/20 13:31:55;;;;;;;15.63;3.83;;;10.70;99.90;;;;;;5034123;28;20072;-73
2022/09/20 13:34:24;;;;;;;14.98;2.83;;;10.80;99.90;;;;;;5030908;28;20029;-72
2022/09/20 13:36:57;;;;;;;10.75;2.25;;;10.90;99.90;;;;;;5024913;28;20075;-73
2022/09/20 13:39:35;;;;;;;8.23;2.40;;;11.00;99.90;;;;;;5028464;28;20048;-73
2022/09/20 13:42:07;;;;;;;7.80;1.88;;;11.00;99.90;;;;;;5030086;28;20041;-73
2022/09/20 13:44:36;;;;;;;7.78;2.40;;;10.90;99.90;;;;;;5031596;28;20136;-73
2022/09/20 13:47:24;;;;;;;10.43;2.15;;;10.80;99.90;;;;;;5031387;28;20072;-73
2022/09/20 13:49:52;;;;;;;12.18;2.78;;;10.80;99.90;;;;;;5032182;28;20120;-72
2022/09/20 13:52:31;;;;;;;14.70;2.40;;;10.70;99.90;;;;;;5031459;28;20413;-73
2022/09/20 13:54:58;;;;;;;12.95;2.40;;;10.70;99.90;;;;;;5030836;28;20112;-73
2022/09/20 13:57:30;;;;;;;15.90;3.40;;;10.70;99.90;;;;;;5031248;28;20068;-74
2022/09/20 13:59:58;;;;;;;10.90;3.25;;;10.80;99.90;;;;;;5030801;28;20138;-73
2022/09/20 14:02:31;;;;;;;7.78;1.52;;;10.70;99.90;;;;;;5030971;28;20034;-73
2022/09/20 14:05:01;;;;;;;13.20;1.80;;;10.70;99.90;;;;;;5030809;28;20091;-73
2022/09/20 14:07:29;;;;;;;7.47;1.63;;;10.60;99.90;;;;;;5034024;28;20366;-73